createdAt,value
2022-08-02T00:01:37.995Z,18.63
2022-08-02T00:06:42.958Z,18.41
2022-08-02T00:11:47.885Z,18.42
2022-08-02T00:16:55.699Z,18.36
2022-08-02T00:22:00.619Z,18.25
2022-08-02T00:27:09.506Z,18.10
2022-08-02T00:32:17.449Z,18.11
2022-08-02T00:37:22.461Z,17.81
2022-08-02T00:42:27.444Z,18.03
2022-08-02T00:47:35.056Z,17.98
2022-08-02T00:52:39.997Z,17.75
2022-08-02T00:57:44.995Z,17.72
2022-08-02T01:02:52.841Z,17.80
2022-08-02T01:07:58.051Z,17.73
2022-08-02T01:13:03.055Z,17.67
2022-08-02T01:18:16.103Z,17.40
2022-08-02T01:23:38.452Z,17.32
2022-08-02T01:28:53.743Z,17.35
2022-08-02T01:34:06.006Z,17.28
2022-08-02T01:39:26.442Z,17.22
2022-08-02T01:44:44.435Z,16.93
2022-08-02T01:49:54.006Z,17.12
2022-08-02T01:55:04.377Z,17.38
2022-08-02T02:00:14.146Z,17.06
2022-08-02T02:05:22.284Z,16.94
2022-08-02T02:10:29.642Z,17.00
2022-08-02T02:15:38.353Z,17.05
2022-08-02T02:20:46.441Z,16.68
2022-08-02T02:25:52.349Z,16.49
2022-08-02T02:31:08.183Z,16.39
2022-08-02T02:36:14.495Z,16.30
2022-08-02T02:41:21.223Z,16.24
2022-08-02T02:46:29.785Z,16.51
2022-08-02T02:51:35.419Z,16.61
2022-08-02T02:56:40.977Z,16.65
2022-08-02T03:01:57.322Z,16.78
2022-08-02T03:07:04.175Z,16.73
2022-08-02T03:12:12.597Z,16.81
2022-08-02T03:17:26.269Z,16.46
2022-08-02T03:22:32.659Z,16.91
2022-08-02T03:27:37.801Z,16.75
2022-08-02T03:32:51.346Z,16.34
2022-08-02T03:37:58.661Z,16.67
2022-08-02T03:43:04.863Z,16.18
2022-08-02T03:48:34.316Z,16.67
2022-08-02T03:53:39.856Z,16.49
2022-08-02T03:58:49.020Z,16.45
2022-08-02T04:03:57.062Z,16.71
2022-08-02T04:09:02.060Z,16.67
2022-08-02T04:14:11.517Z,16.77
2022-08-02T04:19:24.846Z,17.09
2022-08-02T04:24:33.685Z,17.24
2022-08-02T04:29:43.949Z,17.29
2022-08-02T04:35:18.215Z,17.82
2022-08-02T04:40:19.867Z,18.39
2022-08-02T04:45:25.958Z,18.79
2022-08-02T04:50:33.595Z,19.24
2022-08-02T04:55:38.639Z,18.83
2022-08-02T05:00:43.841Z,19.42
2022-08-02T05:05:51.381Z,20.89
2022-08-02T05:10:59.313Z,20.32
2022-08-02T05:16:04.740Z,20.81
2022-08-02T05:21:12.688Z,20.80
2022-08-02T05:26:18.183Z,24.32
2022-08-02T05:31:25.432Z,22.62
2022-08-02T05:36:33.662Z,23.06
2022-08-02T05:41:38.744Z,23.76
2022-08-02T05:46:43.731Z,24.59
2022-08-02T05:52:00.555Z,25.14
2022-08-02T05:57:09.948Z,26.83
2022-08-02T06:02:30.367Z,26.65
2022-08-02T06:07:39.978Z,27.40
2022-08-02T06:12:51.215Z,27.71
2022-08-02T06:17:56.290Z,26.90
2022-08-02T06:23:04.586Z,27.92
2022-08-02T06:28:10.638Z,28.36
2022-08-02T06:33:16.655Z,29.02
2022-08-02T06:38:26.943Z,28.22
2022-08-02T06:43:37.731Z,29.32
2022-08-02T06:48:44.424Z,30.88
2022-08-02T06:53:53.053Z,29.67
2022-08-02T06:58:58.370Z,31.22
2022-08-02T07:04:04.330Z,29.80
2022-08-02T07:09:20.401Z,30.15
2022-08-02T07:14:26.142Z,31.19
2022-08-02T07:19:37.804Z,29.79
2022-08-02T07:24:45.884Z,30.12
2022-08-02T07:29:51.197Z,28.81
2022-08-02T07:34:57.096Z,28.04
2022-08-02T07:40:08.814Z,26.61
2022-08-02T07:45:18.021Z,26.57
2022-08-02T07:50:24.262Z,28.73
2022-08-02T07:55:39.339Z,27.69
2022-08-02T08:00:46.624Z,28.04
2022-08-02T08:05:52.885Z,28.27
2022-08-02T08:11:25.889Z,28.28
2022-08-02T08:16:37.682Z,26.86
2022-08-02T08:21:43.270Z,26.84
2022-08-02T08:26:51.447Z,25.98
2022-08-02T08:31:56.933Z,26.87
2022-08-02T08:37:02.591Z,27.40
2022-08-02T08:42:12.387Z,26.85
2022-08-02T08:47:17.935Z,26.49
2022-08-02T08:52:26.704Z,27.35
2022-08-02T08:57:40.838Z,26.76
2022-08-02T09:02:47.033Z,27.69
2022-08-02T09:07:54.263Z,27.66
2022-08-02T09:13:31.370Z,27.11
2022-08-02T09:18:37.401Z,27.63
2022-08-02T09:23:44.409Z,27.57
2022-08-02T09:28:55.714Z,27.75
2022-08-02T09:34:01.865Z,27.82
2022-08-02T09:39:09.405Z,27.70
2022-08-02T09:44:18.217Z,28.04
2022-08-02T09:49:23.179Z,28.39
2022-08-02T09:54:31.423Z,26.55
2022-08-02T09:59:39.343Z,28.36
2022-08-02T10:04:53.334Z,28.22
2022-08-02T10:10:02.844Z,28.98
2022-08-02T11:07:15.294Z,29.13
2022-08-02T11:13:09.664Z,29.83
2022-08-02T11:18:32.839Z,29.03
2022-08-02T11:23:56.349Z,30.15
2022-08-02T11:29:15.420Z,29.11
2022-08-02T11:40:19.956Z,29.07
2022-08-02T13:27:49.550Z,30.13
2022-08-02T13:33:00.934Z,29.92
2022-08-02T13:38:15.886Z,30.98
2022-08-02T13:43:53.559Z,30.97
2022-08-02T13:49:19.474Z,30.08
2022-08-02T13:54:39.479Z,31.10
2022-08-02T13:59:59.121Z,30.48
2022-08-02T14:22:38.518Z,29.97
2022-08-02T14:27:44.018Z,29.94
2022-08-02T14:32:54.697Z,29.86
2022-08-02T14:49:38.301Z,30.75
2022-08-02T14:55:24.075Z,30.99
2022-08-02T15:00:40.409Z,30.57
2022-08-02T15:05:52.286Z,30.22
2022-08-02T15:11:03.268Z,30.04
2022-08-02T15:16:16.358Z,30.32
2022-08-02T15:21:40.701Z,30.23
2022-08-02T15:26:51.055Z,30.04
2022-08-02T15:32:00.141Z,30.06
2022-08-02T15:37:10.904Z,30.39
2022-08-02T15:42:18.572Z,30.15
2022-08-02T15:47:31.355Z,29.62
2022-08-02T15:52:39.765Z,29.56
2022-08-02T15:57:46.908Z,29.57
2022-08-02T16:02:55.541Z,30.06
2022-08-02T16:08:01.293Z,30.16
2022-08-02T16:13:20.048Z,29.92
2022-08-02T16:18:29.650Z,29.86
2022-08-02T16:24:02.699Z,29.83
2022-08-02T16:35:07.602Z,30.02
2022-08-02T16:40:20.945Z,29.82
2022-08-02T16:46:06.631Z,29.53
2022-08-02T16:51:27.103Z,29.67
2022-08-02T17:02:18.152Z,30.16
2022-08-02T17:08:08.347Z,29.90
2022-08-02T17:13:12.196Z,29.34
2022-08-02T17:18:19.837Z,29.40
2022-08-02T17:24:04.047Z,29.41
2022-08-02T17:29:15.812Z,29.05
2022-08-02T17:34:29.611Z,29.05
2022-08-02T17:39:44.279Z,29.18
2022-08-02T17:45:00.914Z,29.19
2022-08-02T17:50:13.387Z,29.20
2022-08-02T17:55:21.906Z,28.81
2022-08-02T18:00:30.941Z,28.78
2022-08-02T18:05:53.039Z,28.60
2022-08-02T18:11:04.596Z,28.28
2022-08-02T18:16:21.198Z,27.93
2022-08-02T18:21:31.641Z,27.76
2022-08-02T18:26:43.512Z,27.81
2022-08-02T18:31:51.137Z,27.52
2022-08-02T18:37:05.616Z,27.63
2022-08-02T18:42:40.664Z,27.33
2022-08-02T18:47:51.004Z,27.07
2022-08-02T18:52:58.251Z,26.92
2022-08-02T18:58:17.865Z,26.98
2022-08-02T19:03:28.818Z,26.56
2022-08-02T19:08:35.302Z,26.35
2022-08-02T19:13:46.774Z,26.04
2022-08-02T19:18:52.313Z,25.67
2022-08-02T19:23:58.384Z,25.60
2022-08-02T19:29:08.754Z,25.54
2022-08-02T19:34:16.906Z,25.60
2022-08-02T19:39:22.007Z,25.43
2022-08-02T19:44:34.588Z,25.34
2022-08-02T19:49:40.838Z,25.10
2022-08-02T19:54:55.689Z,24.58
2022-08-02T20:00:04.860Z,24.54
2022-08-02T20:05:23.900Z,24.49
2022-08-02T20:10:33.596Z,24.24
2022-08-02T20:15:56.392Z,23.86
2022-08-02T20:21:03.260Z,23.77
2022-08-02T20:26:09.081Z,23.77
2022-08-02T20:31:16.654Z,23.84
2022-08-02T20:36:23.566Z,23.84
2022-08-02T20:41:36.363Z,23.75
2022-08-02T20:46:45.336Z,23.71
2022-08-02T20:51:50.442Z,23.69
2022-08-02T20:56:55.388Z,23.73
2022-08-02T21:02:03.434Z,23.96
2022-08-02T21:07:08.686Z,24.02
2022-08-02T21:12:17.967Z,23.58
2022-08-02T21:17:42.504Z,23.40
2022-08-02T21:22:54.726Z,23.16
2022-08-02T21:28:00.406Z,23.14
2022-08-02T21:33:17.782Z,23.06
2022-08-02T21:38:35.724Z,22.87
2022-08-02T21:43:43.958Z,22.83
2022-08-02T21:48:51.611Z,22.82
2022-08-02T21:54:18.304Z,22.49
2022-08-02T21:59:25.848Z,22.24
2022-08-02T22:04:35.045Z,22.07
2022-08-02T22:15:06.024Z,22.02
2022-08-02T22:20:20.843Z,21.81
2022-08-02T22:25:37.533Z,21.80
2022-08-02T22:30:43.032Z,21.46
2022-08-02T22:35:51.927Z,21.40
2022-08-02T22:40:57.119Z,21.49
2022-08-02T22:46:02.426Z,21.20
2022-08-02T22:51:10.068Z,21.24
2022-08-02T22:56:16.456Z,21.19
2022-08-02T22:59:04.208Z,22.13
2022-08-02T23:01:21.521Z,21.18
2022-08-02T23:06:29.008Z,21.04
2022-08-02T23:11:33.961Z,20.76
2022-08-02T23:16:52.862Z,20.95
2022-08-02T23:22:02.793Z,20.74
2022-08-02T23:27:08.273Z,20.54
2022-08-02T23:32:13.756Z,20.49
2022-08-02T23:37:21.310Z,20.53
2022-08-02T23:42:26.561Z,20.51
2022-08-02T23:47:31.458Z,20.42
2022-08-02T23:52:38.974Z,20.37
2022-08-02T23:57:44.030Z,20.25
